Kona International At Keahole Airport Kailua/Kona US
ICAO: PHKO
IATA: KOA
Category: Medium
Scheduled Services:

Elevation: 47 ft
TransAlt. 18000 ft.

Airport Communications:
ATIS:127.4
CLNC DEL:121.9
HONOLULU CNTR:126
CTAF:120.3
HONOLULU:123.6
TWR:120.3

PHKO Zoom In..

Runways:

(A) RW 17 length 11000 ft width 150 ft
ILS 109.70 / hdg 174

(B) RW 35 length 11000 ft width 150 ft
---- / hdg 354

Location; PHKO
Day. 22 / Time. 00.53 Zulu
* Altimeter: 29.99
* Temperature: 27° c. 80.6°f.
* Wind from: 200° Speed 09 kn.
Dewpoint: 19° c.
Visibility: 10 Statute Miles.
Clouds: Scattered 7500 ft.
Clouds: Scattered 9000 ft.

PHKO 220053Z 20009KT 10SM SCT075 SCT090 27/19 A2999 RMK AO2 SLP156 T02720194


Wind From 200°
Speed 09 kn.

  YouTube Music Video
 
jpsmedia.com for Web Design  worldairports.se 2018   terms of use